Lavras da Mangabeira, Brazil
Current Conditions -  °F | °C
As of 7:00 AM on Thursday 29 Jan 2015 (Local Time) from SBJU Reporting Station
Scattered Clouds Scattered Clouds  
Wind Chill: 79°   Ceiling: Unl
Heat Index: 81°   Visibility: 6mi
Dew Point: 70°   Wind: 3mph
Humidity: 74%   Direction: 140°SE
Pressure: 30.03"   Gusts: NA
Location:  6.75°S, 38.96°W
Report Text: SBJU 291000Z 14003KT 9999 SCT020 FEW022TCU 26/21 Q1017
Loading
Personal Weather Stations






























Interactive Weather Map New forecast layout! Learn more

10-Day Weather Forecast

Advertisements
Track Severe Weather on mobile